Terminal Aerodrome Forecast
Issued by NWS

Home | Current Version | Previous Version | Text Only | Print | Product List | Glossary On
Versions: 1 2 3 4 5 6 7 8 9 10 11 12
000
FTUS43 KMQT 232324
TAFCMX
TAF
KCMX 232324Z 2400/2424 34005KT P6SM BKN080
     FM240500 01011G19KT P6SM VCSH OVC030
     FM240700 36017G30KT 6SM -SHRA OVC020
     FM241000 36023G37KT 5SM -SHRA OVC015
     FM241600 35032G43KT 2SM -SHRA OVC010
     FM242100 35028G42KT 1 1/2SM -SHRASN OVC008
     FM242300 35025G34KT 3SM -SHRASN OVC015=

USA.gov is the U.S. government's official web portal to all federal, state and local government web resources and services.